sensor_id;sensor_type;location;lat;lon;timestamp;temperature;humidity
30520;DHT22;17300;50.374;8.006;2023-02-28T00:00:45;6.90;36.20
30520;DHT22;17300;50.374;8.006;2023-02-28T00:03:12;6.80;36.20
30520;DHT22;17300;50.374;8.006;2023-02-28T00:05:39;6.80;36.40
30520;DHT22;17300;50.374;8.006;2023-02-28T00:08:07;6.70;36.40
30520;DHT22;17300;50.374;8.006;2023-02-28T00:10:34;6.60;36.50
30520;DHT22;17300;50.374;8.006;2023-02-28T00:13:04;6.50;36.70
30520;DHT22;17300;50.374;8.006;2023-02-28T00:15:31;6.50;36.90
30520;DHT22;17300;50.374;8.006;2023-02-28T00:17:58;6.40;36.90
30520;DHT22;17300;50.374;8.006;2023-02-28T00:20:25;6.30;36.90
30520;DHT22;17300;50.374;8.006;2023-02-28T00:22:53;6.30;36.90
30520;DHT22;17300;50.374;8.006;2023-02-28T00:25:21;6.20;36.80
30520;DHT22;17300;50.374;8.006;2023-02-28T00:27:48;6.20;37.50
30520;DHT22;17300;50.374;8.006;2023-02-28T00:30:17;6.20;36.90
30520;DHT22;17300;50.374;8.006;2023-02-28T00:32:44;6.10;37.20
30520;DHT22;17300;50.374;8.006;2023-02-28T00:35:12;6.10;37.20
30520;DHT22;17300;50.374;8.006;2023-02-28T00:37:39;6.00;37.30
30520;DHT22;17300;50.374;8.006;2023-02-28T00:40:06;6.00;37.50
30520;DHT22;17300;50.374;8.006;2023-02-28T00:42:34;6.00;37.70
30520;DHT22;17300;50.374;8.006;2023-02-28T00:45:01;6.00;37.90
30520;DHT22;17300;50.374;8.006;2023-02-28T00:47:31;6.00;37.90
30520;DHT22;17300;50.374;8.006;2023-02-28T00:49:58;5.90;37.90
30520;DHT22;17300;50.374;8.006;2023-02-28T00:52:25;6.00;37.90
30520;DHT22;17300;50.374;8.006;2023-02-28T00:54:51;5.90;37.80
30520;DHT22;17300;50.374;8.006;2023-02-28T00:57:18;5.90;37.80
30520;DHT22;17300;50.374;8.006;2023-02-28T00:59:45;5.90;37.80
30520;DHT22;17300;50.374;8.006;2023-02-28T01:02:11;5.90;37.90
30520;DHT22;17300;50.374;8.006;2023-02-28T01:04:39;5.90;37.90
30520;DHT22;17300;50.374;8.006;2023-02-28T01:07:06;5.80;37.90
30520;DHT22;17300;50.374;8.006;2023-02-28T01:09:33;5.80;37.80
30520;DHT22;17300;50.374;8.006;2023-02-28T01:12:00;5.80;37.90
30520;DHT22;17300;50.374;8.006;2023-02-28T01:14:26;5.80;37.90
30520;DHT22;17300;50.374;8.006;2023-02-28T01:16:53;5.70;37.90
30520;DHT22;17300;50.374;8.006;2023-02-28T01:19:20;5.60;37.90
30520;DHT22;17300;50.374;8.006;2023-02-28T01:21:48;5.60;37.90
30520;DHT22;17300;50.374;8.006;2023-02-28T01:24:14;5.50;37.90
30520;DHT22;17300;50.374;8.006;2023-02-28T01:26:41;5.40;37.90
30520;DHT22;17300;50.374;8.006;2023-02-28T01:29:08;5.40;38.10
30520;DHT22;17300;50.374;8.006;2023-02-28T01:31:34;5.40;38.20
30520;DHT22;17300;50.374;8.006;2023-02-28T01:34:01;5.40;38.40
30520;DHT22;17300;50.374;8.006;2023-02-28T01:36:28;5.40;38.60
30520;DHT22;17300;50.374;8.006;2023-02-28T01:38:56;5.30;38.60
30520;DHT22;17300;50.374;8.006;2023-02-28T01:41:24;5.30;38.80
30520;DHT22;17300;50.374;8.006;2023-02-28T01:44:00;5.30;38.80
30520;DHT22;17300;50.374;8.006;2023-02-28T01:46:30;5.30;39.00
30520;DHT22;17300;50.374;8.006;2023-02-28T01:49:02;5.40;39.00
30520;DHT22;17300;50.374;8.006;2023-02-28T01:51:35;5.40;39.20
30520;DHT22;17300;50.374;8.006;2023-02-28T01:54:08;5.40;39.10
30520;DHT22;17300;50.374;8.006;2023-02-28T01:56:41;5.40;39.20
30520;DHT22;17300;50.374;8.006;2023-02-28T01:59:11;5.40;39.00
30520;DHT22;17300;50.374;8.006;2023-02-28T02:01:38;5.40;39.00
30520;DHT22;17300;50.374;8.006;2023-02-28T02:04:05;5.40;38.90
30520;DHT22;17300;50.374;8.006;2023-02-28T02:06:36;5.50;39.00
30520;DHT22;17300;50.374;8.006;2023-02-28T02:09:04;5.50;39.20
30520;DHT22;17300;50.374;8.006;2023-02-28T02:11:32;5.40;39.00
30520;DHT22;17300;50.374;8.006;2023-02-28T02:14:31;5.40;39.00
30520;DHT22;17300;50.374;8.006;2023-02-28T02:17:09;5.40;39.70
30520;DHT22;17300;50.374;8.006;2023-02-28T02:20:04;5.30;39.10
30520;DHT22;17300;50.374;8.006;2023-02-28T02:23:02;5.30;39.30
30520;DHT22;17300;50.374;8.006;2023-02-28T02:25:40;5.30;39.30
30520;DHT22;17300;50.374;8.006;2023-02-28T02:28:27;5.20;39.00
30520;DHT22;17300;50.374;8.006;2023-02-28T02:31:20;5.10;39.20
30520;DHT22;17300;50.374;8.006;2023-02-28T02:34:24;5.00;39.10
30520;DHT22;17300;50.374;8.006;2023-02-28T02:37:00;5.00;39.30
30520;DHT22;17300;50.374;8.006;2023-02-28T02:39:33;4.90;38.80
30520;DHT22;17300;50.374;8.006;2023-02-28T02:42:06;4.80;38.80
30520;DHT22;17300;50.374;8.006;2023-02-28T02:44:40;4.80;38.90
30520;DHT22;17300;50.374;8.006;2023-02-28T02:47:12;4.70;38.90
30520;DHT22;17300;50.374;8.006;2023-02-28T02:49:48;4.60;38.90
30520;DHT22;17300;50.374;8.006;2023-02-28T02:52:17;4.50;39.20
30520;DHT22;17300;50.374;8.006;2023-02-28T02:54:47;4.50;39.10
30520;DHT22;17300;50.374;8.006;2023-02-28T02:57:20;4.40;39.20
30520;DHT22;17300;50.374;8.006;2023-02-28T02:59:48;4.40;39.30
30520;DHT22;17300;50.374;8.006;2023-02-28T03:02:17;4.30;39.20
30520;DHT22;17300;50.374;8.006;2023-02-28T03:04:48;4.30;39.30
30520;DHT22;17300;50.374;8.006;2023-02-28T03:07:17;4.20;39.40
30520;DHT22;17300;50.374;8.006;2023-02-28T03:09:50;4.20;39.40
30520;DHT22;17300;50.374;8.006;2023-02-28T03:12:18;4.10;39.70
30520;DHT22;17300;50.374;8.006;2023-02-28T03:14:55;4.10;39.50
30520;DHT22;17300;50.374;8.006;2023-02-28T03:20:38;4.00;40.00
30520;DHT22;17300;50.374;8.006;2023-02-28T03:23:13;4.00;39.60
30520;DHT22;17300;50.374;8.006;2023-02-28T03:25:50;3.90;39.70
30520;DHT22;17300;50.374;8.006;2023-02-28T03:28:24;3.90;39.80
30520;DHT22;17300;50.374;8.006;2023-02-28T03:30:59;3.80;39.80
30520;DHT22;17300;50.374;8.006;2023-02-28T03:33:30;3.80;39.80
30520;DHT22;17300;50.374;8.006;2023-02-28T03:36:02;3.80;39.80
30520;DHT22;17300;50.374;8.006;2023-02-28T03:38:33;3.70;39.70
30520;DHT22;17300;50.374;8.006;2023-02-28T03:41:05;3.70;39.90
30520;DHT22;17300;50.374;8.006;2023-02-28T03:43:36;3.70;39.90
30520;DHT22;17300;50.374;8.006;2023-02-28T03:46:08;3.60;39.90
30520;DHT22;17300;50.374;8.006;2023-02-28T03:48:40;3.60;40.00
30520;DHT22;17300;50.374;8.006;2023-02-28T03:51:11;3.60;40.10
30520;DHT22;17300;50.374;8.006;2023-02-28T03:53:42;3.50;40.00
30520;DHT22;17300;50.374;8.006;2023-02-28T03:56:15;3.50;40.00
30520;DHT22;17300;50.374;8.006;2023-02-28T03:58:47;3.50;40.20
30520;DHT22;17300;50.374;8.006;2023-02-28T04:01:19;3.40;40.20
30520;DHT22;17300;50.374;8.006;2023-02-28T04:03:47;3.40;40.20
30520;DHT22;17300;50.374;8.006;2023-02-28T04:06:17;3.40;40.10
30520;DHT22;17300;50.374;8.006;2023-02-28T04:08:45;3.40;40.40
30520;DHT22;17300;50.374;8.006;2023-02-28T04:11:18;3.40;40.30
30520;DHT22;17300;50.374;8.006;2023-02-28T04:13:46;3.30;40.40
30520;DHT22;17300;50.374;8.006;2023-02-28T04:16:14;3.30;40.30
30520;DHT22;17300;50.374;8.006;2023-02-28T04:18:41;3.30;40.30
30520;DHT22;17300;50.374;8.006;2023-02-28T04:21:09;3.20;40.30
30520;DHT22;17300;50.374;8.006;2023-02-28T04:23:37;3.20;40.30
30520;DHT22;17300;50.374;8.006;2023-02-28T04:26:04;3.20;40.50
30520;DHT22;17300;50.374;8.006;2023-02-28T04:28:31;3.20;40.50
30520;DHT22;17300;50.374;8.006;2023-02-28T04:30:59;3.10;40.40
30520;DHT22;17300;50.374;8.006;2023-02-28T04:33:26;3.10;40.50
30520;DHT22;17300;50.374;8.006;2023-02-28T04:35:59;3.10;40.60
30520;DHT22;17300;50.374;8.006;2023-02-28T04:38:26;3.00;41.40
30520;DHT22;17300;50.374;8.006;2023-02-28T04:40:57;3.00;40.60
30520;DHT22;17300;50.374;8.006;2023-02-28T04:43:23;3.00;41.40
30520;DHT22;17300;50.374;8.006;2023-02-28T04:45:50;3.00;40.70
30520;DHT22;17300;50.374;8.006;2023-02-28T04:48:16;3.00;40.70
30520;DHT22;17300;50.374;8.006;2023-02-28T04:50:43;2.90;40.70
30520;DHT22;17300;50.374;8.006;2023-02-28T04:53:10;2.90;40.80
30520;DHT22;17300;50.374;8.006;2023-02-28T04:55:36;2.90;40.80
30520;DHT22;17300;50.374;8.006;2023-02-28T04:58:06;2.90;40.90
30520;DHT22;17300;50.374;8.006;2023-02-28T05:00:33;2.90;41.00
30520;DHT22;17300;50.374;8.006;2023-02-28T05:03:00;2.80;40.90
30520;DHT22;17300;50.374;8.006;2023-02-28T05:05:26;2.80;40.90
30520;DHT22;17300;50.374;8.006;2023-02-28T05:07:53;2.80;41.00
30520;DHT22;17300;50.374;8.006;2023-02-28T05:10:21;2.80;41.10
30520;DHT22;17300;50.374;8.006;2023-02-28T05:12:48;2.80;41.10
30520;DHT22;17300;50.374;8.006;2023-02-28T05:15:18;2.80;41.20
30520;DHT22;17300;50.374;8.006;2023-02-28T05:17:44;2.70;41.20
30520;DHT22;17300;50.374;8.006;2023-02-28T05:20:12;2.70;41.10
30520;DHT22;17300;50.374;8.006;2023-02-28T05:22:39;2.70;41.20
30520;DHT22;17300;50.374;8.006;2023-02-28T05:25:09;2.70;41.20
30520;DHT22;17300;50.374;8.006;2023-02-28T05:27:37;2.70;41.30
30520;DHT22;17300;50.374;8.006;2023-02-28T05:30:05;2.70;41.20
30520;DHT22;17300;50.374;8.006;2023-02-28T05:32:33;2.60;41.20
30520;DHT22;17300;50.374;8.006;2023-02-28T05:35:01;2.60;41.20
30520;DHT22;17300;50.374;8.006;2023-02-28T05:37:30;2.60;41.20
30520;DHT22;17300;50.374;8.006;2023-02-28T05:39:57;2.60;41.30
30520;DHT22;17300;50.374;8.006;2023-02-28T05:42:41;2.60;41.40
30520;DHT22;17300;50.374;8.006;2023-02-28T05:45:10;2.50;41.40
30520;DHT22;17300;50.374;8.006;2023-02-28T05:47:58;2.60;41.50
30520;DHT22;17300;50.374;8.006;2023-02-28T05:50:41;2.60;41.80
30520;DHT22;17300;50.374;8.006;2023-02-28T06:08:50;2.70;42.10
30520;DHT22;17300;50.374;8.006;2023-02-28T06:11:17;2.80;42.30
30520;DHT22;17300;50.374;8.006;2023-02-28T06:13:45;2.80;42.40
30520;DHT22;17300;50.374;8.006;2023-02-28T06:16:11;2.90;42.50
30520;DHT22;17300;50.374;8.006;2023-02-28T06:18:38;3.00;42.60
30520;DHT22;17300;50.374;8.006;2023-02-28T06:21:05;3.10;42.70
30520;DHT22;17300;50.374;8.006;2023-02-28T06:23:31;3.20;42.70
30520;DHT22;17300;50.374;8.006;2023-02-28T06:26:00;3.20;42.60
30520;DHT22;17300;50.374;8.006;2023-02-28T06:28:27;3.30;42.70
30520;DHT22;17300;50.374;8.006;2023-02-28T06:30:54;3.30;42.60
30520;DHT22;17300;50.374;8.006;2023-02-28T06:33:20;3.40;42.70
30520;DHT22;17300;50.374;8.006;2023-02-28T06:35:47;3.40;42.60
30520;DHT22;17300;50.374;8.006;2023-02-28T06:38:16;3.50;42.70
30520;DHT22;17300;50.374;8.006;2023-02-28T06:40:43;3.60;42.80
30520;DHT22;17300;50.374;8.006;2023-02-28T06:43:12;3.60;42.80
30520;DHT22;17300;50.374;8.006;2023-02-28T06:45:42;3.70;42.90
30520;DHT22;17300;50.374;8.006;2023-02-28T06:48:09;3.70;43.00
30520;DHT22;17300;50.374;8.006;2023-02-28T06:50:36;3.80;43.00
30520;DHT22;17300;50.374;8.006;2023-02-28T06:53:03;3.80;43.00
30520;DHT22;17300;50.374;8.006;2023-02-28T06:55:30;3.90;43.00
30520;DHT22;17300;50.374;8.006;2023-02-28T06:57:57;4.00;43.10
30520;DHT22;17300;50.374;8.006;2023-02-28T07:00:25;4.00;43.10
30520;DHT22;17300;50.374;8.006;2023-02-28T07:02:52;4.10;43.30
30520;DHT22;17300;50.374;8.006;2023-02-28T07:05:20;4.20;43.30
30520;DHT22;17300;50.374;8.006;2023-02-28T07:07:47;4.30;43.40
30520;DHT22;17300;50.374;8.006;2023-02-28T07:10:14;4.40;43.50
30520;DHT22;17300;50.374;8.006;2023-02-28T07:12:42;4.50;43.50
30520;DHT22;17300;50.374;8.006;2023-02-28T07:15:10;4.60;43.50
30520;DHT22;17300;50.374;8.006;2023-02-28T07:17:38;4.70;43.30
30520;DHT22;17300;50.374;8.006;2023-02-28T07:20:05;4.70;43.00
30520;DHT22;17300;50.374;8.006;2023-02-28T07:22:32;4.80;42.90
30520;DHT22;17300;50.374;8.006;2023-02-28T07:24:59;4.80;42.90
30520;DHT22;17300;50.374;8.006;2023-02-28T07:27:26;4.80;42.90
30520;DHT22;17300;50.374;8.006;2023-02-28T07:29:53;4.90;42.90
30520;DHT22;17300;50.374;8.006;2023-02-28T07:32:20;4.90;43.10
30520;DHT22;17300;50.374;8.006;2023-02-28T07:34:48;5.00;43.40
30520;DHT22;17300;50.374;8.006;2023-02-28T07:37:15;5.20;43.70
30520;DHT22;17300;50.374;8.006;2023-02-28T07:39:41;5.30;43.70
30520;DHT22;17300;50.374;8.006;2023-02-28T07:42:08;5.50;43.60
30520;DHT22;17300;50.374;8.006;2023-02-28T07:44:37;5.60;43.60
30520;DHT22;17300;50.374;8.006;2023-02-28T07:47:06;5.90;44.70
30520;DHT22;17300;50.374;8.006;2023-02-28T07:49:33;6.30;46.30
30520;DHT22;17300;50.374;8.006;2023-02-28T07:52:02;6.90;48.40
30520;DHT22;17300;50.374;8.006;2023-02-28T07:54:29;7.70;49.20
30520;DHT22;17300;50.374;8.006;2023-02-28T07:56:56;8.50;49.10
30520;DHT22;17300;50.374;8.006;2023-02-28T07:59:22;9.30;48.90
30520;DHT22;17300;50.374;8.006;2023-02-28T08:01:49;10.20;48.20
30520;DHT22;17300;50.374;8.006;2023-02-28T08:04:16;11.20;48.50
30520;DHT22;17300;50.374;8.006;2023-02-28T08:06:43;12.20;48.60
30520;DHT22;17300;50.374;8.006;2023-02-28T08:09:11;13.20;48.40
30520;DHT22;17300;50.374;8.006;2023-02-28T08:11:38;14.20;48.00
30520;DHT22;17300;50.374;8.006;2023-02-28T08:14:04;15.20;47.70
30520;DHT22;17300;50.374;8.006;2023-02-28T08:16:31;16.20;46.30
30520;DHT22;17300;50.374;8.006;2023-02-28T08:18:58;17.10;45.30
30520;DHT22;17300;50.374;8.006;2023-02-28T08:21:24;17.90;44.60
30520;DHT22;17300;50.374;8.006;2023-02-28T08:23:51;18.70;43.50
30520;DHT22;17300;50.374;8.006;2023-02-28T08:26:20;19.40;42.50
30520;DHT22;17300;50.374;8.006;2023-02-28T08:28:47;20.10;41.20
30520;DHT22;17300;50.374;8.006;2023-02-28T08:31:15;20.70;40.60
30520;DHT22;17300;50.374;8.006;2023-02-28T08:33:43;21.20;39.10
30520;DHT22;17300;50.374;8.006;2023-02-28T08:36:11;21.60;38.10
30520;DHT22;17300;50.374;8.006;2023-02-28T08:38:38;22.00;37.10
30520;DHT22;17300;50.374;8.006;2023-02-28T08:41:06;22.20;36.50
30520;DHT22;17300;50.374;8.006;2023-02-28T08:43:36;22.60;36.00
30520;DHT22;17300;50.374;8.006;2023-02-28T08:46:03;22.90;35.40
30520;DHT22;17300;50.374;8.006;2023-02-28T08:48:32;23.20;34.80
30520;DHT22;17300;50.374;8.006;2023-02-28T08:51:00;23.50;33.80
30520;DHT22;17300;50.374;8.006;2023-02-28T08:53:28;23.70;33.40
30520;DHT22;17300;50.374;8.006;2023-02-28T08:55:58;23.80;33.10
30520;DHT22;17300;50.374;8.006;2023-02-28T08:58:26;24.10;32.40
30520;DHT22;17300;50.374;8.006;2023-02-28T09:00:54;24.30;32.80
30520;DHT22;17300;50.374;8.006;2023-02-28T09:03:21;24.50;31.40
30520;DHT22;17300;50.374;8.006;2023-02-28T09:05:55;24.60;30.70
30520;DHT22;17300;50.374;8.006;2023-02-28T09:08:22;24.60;29.40
30520;DHT22;17300;50.374;8.006;2023-02-28T09:10:49;24.70;30.00
30520;DHT22;17300;50.374;8.006;2023-02-28T09:13:16;24.70;30.00
30520;DHT22;17300;50.374;8.006;2023-02-28T09:15:43;24.90;30.00
30520;DHT22;17300;50.374;8.006;2023-02-28T09:18:11;25.00;29.90
30520;DHT22;17300;50.374;8.006;2023-02-28T09:20:39;25.10;29.30
30520;DHT22;17300;50.374;8.006;2023-02-28T09:23:06;25.20;29.10
30520;DHT22;17300;50.374;8.006;2023-02-28T09:25:33;25.40;28.70
30520;DHT22;17300;50.374;8.006;2023-02-28T09:27:59;25.50;28.60
30520;DHT22;17300;50.374;8.006;2023-02-28T09:30:26;25.60;28.10
30520;DHT22;17300;50.374;8.006;2023-02-28T09:32:53;25.70;28.00
30520;DHT22;17300;50.374;8.006;2023-02-28T09:35:22;25.80;27.90
30520;DHT22;17300;50.374;8.006;2023-02-28T09:37:50;25.90;27.50
30520;DHT22;17300;50.374;8.006;2023-02-28T09:40:18;26.00;27.30
30520;DHT22;17300;50.374;8.006;2023-02-28T09:42:47;26.10;27.20
30520;DHT22;17300;50.374;8.006;2023-02-28T09:45:22;26.20;26.90
30520;DHT22;17300;50.374;8.006;2023-02-28T09:47:50;26.30;26.20
30520;DHT22;17300;50.374;8.006;2023-02-28T09:50:28;26.50;26.80
30520;DHT22;17300;50.374;8.006;2023-02-28T09:52:56;26.60;25.90
30520;DHT22;17300;50.374;8.006;2023-02-28T09:55:30;26.80;26.50
30520;DHT22;17300;50.374;8.006;2023-02-28T09:57:58;26.90;25.70
30520;DHT22;17300;50.374;8.006;2023-02-28T10:00:30;27.20;26.20
30520;DHT22;17300;50.374;8.006;2023-02-28T10:03:13;27.30;25.50
30520;DHT22;17300;50.374;8.006;2023-02-28T10:05:51;27.50;24.90
30520;DHT22;17300;50.374;8.006;2023-02-28T10:08:22;27.70;25.00
30520;DHT22;17300;50.374;8.006;2023-02-28T10:10:52;27.90;25.20
30520;DHT22;17300;50.374;8.006;2023-02-28T10:13:25;28.00;24.40
30520;DHT22;17300;50.374;8.006;2023-02-28T10:15:57;28.00;23.30
30520;DHT22;17300;50.374;8.006;2023-02-28T10:18:27;27.60;22.70
30520;DHT22;17300;50.374;8.006;2023-02-28T10:20:57;27.10;22.00
30520;DHT22;17300;50.374;8.006;2023-02-28T10:23:28;26.50;21.60
30520;DHT22;17300;50.374;8.006;2023-02-28T10:26:00;25.90;22.10
30520;DHT22;17300;50.374;8.006;2023-02-28T10:28:29;25.40;22.80
30520;DHT22;17300;50.374;8.006;2023-02-28T10:30:57;25.10;22.90
30520;DHT22;17300;50.374;8.006;2023-02-28T10:33:28;24.90;23.10
30520;DHT22;17300;50.374;8.006;2023-02-28T10:35:56;24.70;23.30
30520;DHT22;17300;50.374;8.006;2023-02-28T10:38:25;24.70;23.60
30520;DHT22;17300;50.374;8.006;2023-02-28T10:41:03;24.60;23.60
30520;DHT22;17300;50.374;8.006;2023-02-28T10:43:30;24.60;23.40
30520;DHT22;17300;50.374;8.006;2023-02-28T10:46:03;24.70;24.00
30520;DHT22;17300;50.374;8.006;2023-02-28T10:48:33;24.60;23.00
30520;DHT22;17300;50.374;8.006;2023-02-28T10:51:02;24.50;22.90
30520;DHT22;17300;50.374;8.006;2023-02-28T10:53:36;24.30;22.40
30520;DHT22;17300;50.374;8.006;2023-02-28T10:56:05;23.90;22.10
30520;DHT22;17300;50.374;8.006;2023-02-28T10:58:46;23.60;22.40
30520;DHT22;17300;50.374;8.006;2023-02-28T11:01:15;23.30;22.00
30520;DHT22;17300;50.374;8.006;2023-02-28T11:03:43;22.90;22.10
30520;DHT22;17300;50.374;8.006;2023-02-28T11:06:16;22.50;21.90
30520;DHT22;17300;50.374;8.006;2023-02-28T11:08:47;22.10;21.90
30520;DHT22;17300;50.374;8.006;2023-02-28T11:11:14;21.80;22.50
30520;DHT22;17300;50.374;8.006;2023-02-28T11:13:42;21.60;22.90
30520;DHT22;17300;50.374;8.006;2023-02-28T11:16:11;21.50;23.00
30520;DHT22;17300;50.374;8.006;2023-02-28T11:18:43;21.40;22.70
30520;DHT22;17300;50.374;8.006;2023-02-28T11:21:19;21.40;22.50
30520;DHT22;17300;50.374;8.006;2023-02-28T11:23:49;21.20;21.80
30520;DHT22;17300;50.374;8.006;2023-02-28T11:26:35;21.00;21.50
30520;DHT22;17300;50.374;8.006;2023-02-28T11:29:08;20.60;21.30
30520;DHT22;17300;50.374;8.006;2023-02-28T11:31:36;20.20;21.90
30520;DHT22;17300;50.374;8.006;2023-02-28T11:34:23;20.00;22.00
30520;DHT22;17300;50.374;8.006;2023-02-28T11:36:52;19.70;22.20
30520;DHT22;17300;50.374;8.006;2023-02-28T11:39:19;19.60;22.80
30520;DHT22;17300;50.374;8.006;2023-02-28T11:42:05;19.60;23.10
30520;DHT22;17300;50.374;8.006;2023-02-28T11:44:47;19.50;22.50
30520;DHT22;17300;50.374;8.006;2023-02-28T11:47:20;19.60;22.80
30520;DHT22;17300;50.374;8.006;2023-02-28T11:49:58;19.60;22.80
30520;DHT22;17300;50.374;8.006;2023-02-28T11:52:36;19.60;22.40
30520;DHT22;17300;50.374;8.006;2023-02-28T11:55:14;19.50;22.20
30520;DHT22;17300;50.374;8.006;2023-02-28T11:57:52;19.50;22.10
30520;DHT22;17300;50.374;8.006;2023-02-28T12:00:38;19.40;22.40
30520;DHT22;17300;50.374;8.006;2023-02-28T12:03:16;19.40;22.60
30520;DHT22;17300;50.374;8.006;2023-02-28T12:05:46;19.30;22.50
30520;DHT22;17300;50.374;8.006;2023-02-28T12:08:28;19.20;22.20
30520;DHT22;17300;50.374;8.006;2023-02-28T12:11:07;19.10;22.00
30520;DHT22;17300;50.374;8.006;2023-02-28T12:13:46;19.00;22.30
30520;DHT22;17300;50.374;8.006;2023-02-28T12:16:33;18.90;22.40
30520;DHT22;17300;50.374;8.006;2023-02-28T12:19:18;18.80;22.60
30520;DHT22;17300;50.374;8.006;2023-02-28T12:21:56;18.80;22.70
30520;DHT22;17300;50.374;8.006;2023-02-28T12:24:47;18.70;22.50
30520;DHT22;17300;50.374;8.006;2023-02-28T12:27:19;18.70;22.80
30520;DHT22;17300;50.374;8.006;2023-02-28T12:29:49;18.70;22.90
30520;DHT22;17300;50.374;8.006;2023-02-28T12:32:21;18.60;23.00
30520;DHT22;17300;50.374;8.006;2023-02-28T12:34:52;18.60;23.20
30520;DHT22;17300;50.374;8.006;2023-02-28T12:37:25;18.60;23.30
30520;DHT22;17300;50.374;8.006;2023-02-28T12:40:01;18.60;23.20
30520;DHT22;17300;50.374;8.006;2023-02-28T12:42:35;18.50;23.20
30520;DHT22;17300;50.374;8.006;2023-02-28T12:45:07;18.50;23.30
30520;DHT22;17300;50.374;8.006;2023-02-28T12:47:35;18.50;23.40
30520;DHT22;17300;50.374;8.006;2023-02-28T12:50:04;18.40;23.30
30520;DHT22;17300;50.374;8.006;2023-02-28T12:52:35;18.20;23.30
30520;DHT22;17300;50.374;8.006;2023-02-28T12:55:08;18.10;22.80
30520;DHT22;17300;50.374;8.006;2023-02-28T12:57:42;18.00;22.80
30520;DHT22;17300;50.374;8.006;2023-02-28T13:00:16;17.80;22.70
30520;DHT22;17300;50.374;8.006;2023-02-28T13:06:05;17.30;22.40
30520;DHT22;17300;50.374;8.006;2023-02-28T13:09:07;17.00;22.10
30520;DHT22;17300;50.374;8.006;2023-02-28T13:11:41;16.70;22.20
30520;DHT22;17300;50.374;8.006;2023-02-28T13:14:20;16.40;22.70
30520;DHT22;17300;50.374;8.006;2023-02-28T13:16:59;16.20;22.90
30520;DHT22;17300;50.374;8.006;2023-02-28T13:19:28;16.00;23.10
30520;DHT22;17300;50.374;8.006;2023-02-28T13:21:56;15.80;23.50
30520;DHT22;17300;50.374;8.006;2023-02-28T13:24:42;15.60;22.90
30520;DHT22;17300;50.374;8.006;2023-02-28T13:27:38;15.50;23.20
30520;DHT22;17300;50.374;8.006;2023-02-28T13:33:25;15.20;23.20
30520;DHT22;17300;50.374;8.006;2023-02-28T13:36:07;15.10;23.00
30520;DHT22;17300;50.374;8.006;2023-02-28T13:38:40;15.00;23.20
30520;DHT22;17300;50.374;8.006;2023-02-28T13:41:42;14.80;23.10
30520;DHT22;17300;50.374;8.006;2023-02-28T13:44:12;14.70;23.10
30520;DHT22;17300;50.374;8.006;2023-02-28T13:49:44;14.40;23.20
30520;DHT22;17300;50.374;8.006;2023-02-28T13:52:17;14.30;23.20
30520;DHT22;17300;50.374;8.006;2023-02-28T13:54:55;14.10;23.00
30520;DHT22;17300;50.374;8.006;2023-02-28T13:57:34;14.00;23.10
30520;DHT22;17300;50.374;8.006;2023-02-28T14:00:20;13.80;23.40
30520;DHT22;17300;50.374;8.006;2023-02-28T14:05:41;13.60;23.80
30520;DHT22;17300;50.374;8.006;2023-02-28T14:08:13;13.50;24.10
30520;DHT22;17300;50.374;8.006;2023-02-28T14:10:44;13.50;24.20
30520;DHT22;17300;50.374;8.006;2023-02-28T14:15:58;13.40;24.30
30520;DHT22;17300;50.374;8.006;2023-02-28T14:18:29;13.40;24.50
30520;DHT22;17300;50.374;8.006;2023-02-28T14:21:11;13.30;24.40
30520;DHT22;17300;50.374;8.006;2023-02-28T14:24:10;13.30;24.40
30520;DHT22;17300;50.374;8.006;2023-02-28T14:27:00;13.20;24.60
30520;DHT22;17300;50.374;8.006;2023-02-28T14:29:40;13.20;24.60
30520;DHT22;17300;50.374;8.006;2023-02-28T14:32:15;13.10;24.80
30520;DHT22;17300;50.374;8.006;2023-02-28T14:34:52;13.10;24.80
30520;DHT22;17300;50.374;8.006;2023-02-28T14:37:25;13.10;25.10
30520;DHT22;17300;50.374;8.006;2023-02-28T14:39:53;13.00;25.00
30520;DHT22;17300;50.374;8.006;2023-02-28T14:42:28;13.00;24.80
30520;DHT22;17300;50.374;8.006;2023-02-28T14:44:55;13.00;25.00
30520;DHT22;17300;50.374;8.006;2023-02-28T14:47:26;13.00;25.10
30520;DHT22;17300;50.374;8.006;2023-02-28T14:49:54;13.00;25.30
30520;DHT22;17300;50.374;8.006;2023-02-28T14:52:22;12.90;25.40
30520;DHT22;17300;50.374;8.006;2023-02-28T14:54:52;12.90;25.40
30520;DHT22;17300;50.374;8.006;2023-02-28T14:57:24;12.90;25.50
30520;DHT22;17300;50.374;8.006;2023-02-28T14:59:59;12.90;25.40
30520;DHT22;17300;50.374;8.006;2023-02-28T15:02:33;12.90;25.40
30520;DHT22;17300;50.374;8.006;2023-02-28T15:05:15;13.00;25.40
30520;DHT22;17300;50.374;8.006;2023-02-28T15:07:43;12.90;25.20
30520;DHT22;17300;50.374;8.006;2023-02-28T15:10:20;12.90;25.40
30520;DHT22;17300;50.374;8.006;2023-02-28T15:12:52;12.80;25.20
30520;DHT22;17300;50.374;8.006;2023-02-28T15:15:20;12.80;25.00
30520;DHT22;17300;50.374;8.006;2023-02-28T15:17:52;12.70;25.00
30520;DHT22;17300;50.374;8.006;2023-02-28T15:20:20;12.60;24.90
30520;DHT22;17300;50.374;8.006;2023-02-28T15:22:50;12.50;24.90
30520;DHT22;17300;50.374;8.006;2023-02-28T15:25:20;12.40;25.00
30520;DHT22;17300;50.374;8.006;2023-02-28T15:27:50;12.30;24.90
30520;DHT22;17300;50.374;8.006;2023-02-28T15:30:19;12.20;24.90
30520;DHT22;17300;50.374;8.006;2023-02-28T15:35:40;12.10;24.80
30520;DHT22;17300;50.374;8.006;2023-02-28T15:38:16;11.80;24.70
30520;DHT22;17300;50.374;8.006;2023-02-28T15:40:44;11.60;24.70
30520;DHT22;17300;50.374;8.006;2023-02-28T15:43:16;11.50;24.70
30520;DHT22;17300;50.374;8.006;2023-02-28T15:45:45;11.40;24.90
30520;DHT22;17300;50.374;8.006;2023-02-28T15:48:17;11.30;25.00
30520;DHT22;17300;50.374;8.006;2023-02-28T15:50:48;11.20;25.00
30520;DHT22;17300;50.374;8.006;2023-02-28T15:53:17;11.10;25.10
30520;DHT22;17300;50.374;8.006;2023-02-28T15:55:53;11.00;25.20
30520;DHT22;17300;50.374;8.006;2023-02-28T15:58:22;10.90;25.20
30520;DHT22;17300;50.374;8.006;2023-02-28T16:01:03;10.80;25.20
30520;DHT22;17300;50.374;8.006;2023-02-28T16:03:38;10.70;25.30
30520;DHT22;17300;50.374;8.006;2023-02-28T16:06:30;10.70;25.40
30520;DHT22;17300;50.374;8.006;2023-02-28T16:08:58;10.60;25.40
30520;DHT22;17300;50.374;8.006;2023-02-28T16:11:25;10.50;25.30
30520;DHT22;17300;50.374;8.006;2023-02-28T16:13:52;10.50;25.50
30520;DHT22;17300;50.374;8.006;2023-02-28T16:16:21;10.40;25.40
30520;DHT22;17300;50.374;8.006;2023-02-28T16:18:47;10.40;25.60
30520;DHT22;17300;50.374;8.006;2023-02-28T16:21:14;10.30;25.70
30520;DHT22;17300;50.374;8.006;2023-02-28T16:23:42;10.30;25.70
30520;DHT22;17300;50.374;8.006;2023-02-28T16:26:18;10.20;25.80
30520;DHT22;17300;50.374;8.006;2023-02-28T16:28:46;10.20;26.00
30520;DHT22;17300;50.374;8.006;2023-02-28T16:31:13;10.20;25.90
30520;DHT22;17300;50.374;8.006;2023-02-28T16:33:42;10.10;25.90
30520;DHT22;17300;50.374;8.006;2023-02-28T16:36:12;10.00;26.00
30520;DHT22;17300;50.374;8.006;2023-02-28T16:38:41;10.00;26.10